Time;durP1;ratioP1;P1;durP2;ratioP2;P2;SDS_P1;SDS_P2;PMS_P1;PMS_P2;Temp;Humidity;BMP_temperature;BMP_pressure;BME280_temperature;BME280_humidity;BME280_pressure;Samples;Min_cycle;Max_cycle;Signal;HPM_P1;HPM_P2
2022/04/30 00:02:48;;;;;;;8.10;1.93;;;6.20;93.90;;;;;;6126778;29;20255;-68
2022/04/30 00:05:53;;;;;;;8.43;1.70;;;6.10;94.70;;;;;;6126867;29;20208;-65
2022/04/30 00:08:58;;;;;;;4.73;1.63;;;6.10;94.70;;;;;;6126636;29;20211;-66
2022/04/30 00:12:05;;;;;;;3.60;1.17;;;6.10;95.20;;;;;;6126878;29;20627;-69
2022/04/30 00:15:11;;;;;;;4.17;1.47;;;6.10;95.50;;;;;;6127625;29;20663;-66
2022/04/30 00:18:18;;;;;;;2.63;1.20;;;6.10;95.50;;;;;;6126917;29;20243;-66
2022/04/30 00:21:24;;;;;;;1.73;1.23;;;6.10;96.10;;;;;;6127261;29;20319;-67
2022/04/30 00:24:29;;;;;;;2.00;1.30;;;6.10;96.00;;;;;;6126589;29;20496;-66
2022/04/30 00:27:34;;;;;;;8.53;2.03;;;6.00;96.40;;;;;;6126473;29;20212;-66
2022/04/30 00:30:43;;;;;;;8.17;1.43;;;6.00;96.50;;;;;;6109508;29;20232;-66
2022/04/30 00:33:49;;;;;;;6.90;1.73;;;6.00;97.00;;;;;;6126751;29;20208;-67
2022/04/30 00:36:55;;;;;;;5.23;1.13;;;5.90;97.20;;;;;;6126450;29;20211;-65
2022/04/30 00:40:02;;;;;;;3.60;1.47;;;6.00;97.00;;;;;;6126171;29;20223;-66
2022/04/30 00:43:08;;;;;;;5.27;1.20;;;6.00;97.00;;;;;;6125857;29;20667;-66
2022/04/30 00:46:14;;;;;;;12.17;1.60;;;6.00;97.10;;;;;;6126265;29;20231;-66
2022/04/30 00:49:21;;;;;;;6.53;1.30;;;6.00;97.20;;;;;;6126139;29;20238;-65
2022/04/30 00:52:27;;;;;;;7.93;1.50;;;5.90;97.60;;;;;;6125498;29;20219;-66
2022/04/30 00:55:33;;;;;;;4.87;1.40;;;5.90;98.10;;;;;;6126161;29;20223;-67
2022/04/30 00:58:41;;;;;;;4.70;1.83;;;5.80;98.40;;;;;;6108890;29;20591;-67
2022/04/30 01:01:49;;;;;;;1.80;1.30;;;5.80;98.70;;;;;;6126039;29;20211;-70
2022/04/30 01:05:14;;;;;;;2.60;1.40;;;5.80;98.90;;;;;;6125823;29;20231;-67
2022/04/30 01:08:20;;;;;;;4.70;1.40;;;5.70;99.30;;;;;;6125150;29;20716;-66
2022/04/30 01:11:26;;;;;;;3.43;1.40;;;5.80;99.50;;;;;;6124709;29;20214;-67
2022/04/30 01:14:32;;;;;;;14.13;1.60;;;5.90;99.50;;;;;;6125570;29;20573;-65
2022/04/30 01:17:39;;;;;;;3.70;1.40;;;5.80;99.60;;;;;;6125326;29;20658;-65
2022/04/30 01:20:51;;;;;;;3.43;1.20;;;5.80;99.80;;;;;;6125933;29;20236;-65
2022/04/30 01:23:58;;;;;;;9.77;1.57;;;5.80;99.90;;;;;;6125376;29;20222;-66
2022/04/30 01:27:06;;;;;;;15.43;2.20;;;5.80;99.90;;;;;;6124855;29;20586;-66
2022/04/30 01:30:13;;;;;;;8.90;1.80;;;5.80;99.90;;;;;;6125391;29;20225;-65
2022/04/30 01:40:13;;;;;;;8.57;1.53;;;5.70;99.90;;;;;;6123498;29;20578;-66
2022/04/30 01:43:20;;;;;;;7.00;1.50;;;5.70;99.90;;;;;;6125208;29;20208;-65
2022/04/30 01:46:26;;;;;;;4.83;1.27;;;5.60;99.90;;;;;;6125285;29;20213;-65
2022/04/30 01:49:31;;;;;;;2.17;1.40;;;5.60;99.90;;;;;;6124316;29;20215;-66
2022/04/30 01:52:36;;;;;;;6.30;1.67;;;5.60;99.90;;;;;;6124516;29;20218;-67
2022/04/30 01:55:43;;;;;;;4.67;1.80;;;5.50;99.90;;;;;;6124416;29;20204;-65
2022/04/30 01:58:59;;;;;;;5.60;1.60;;;5.50;99.90;;;;;;6125085;29;20234;-65
2022/04/30 02:02:06;;;;;;;5.53;1.73;;;5.30;99.90;;;;;;6125406;29;20405;-67
2022/04/30 02:05:14;;;;;;;13.90;1.80;;;5.30;99.90;;;;;;6125620;29;20204;-66
2022/04/30 02:08:20;;;;;;;4.47;1.50;;;5.40;99.90;;;;;;6125524;29;20281;-67
2022/04/30 02:11:27;;;;;;;4.53;1.63;;;5.30;99.90;;;;;;6125351;29;20219;-66
2022/04/30 02:14:35;;;;;;;5.23;1.37;;;5.30;99.90;;;;;;6124181;29;20259;-67
2022/04/30 02:17:41;;;;;;;4.20;1.50;;;5.30;99.90;;;;;;6124797;29;20211;-66
2022/04/30 02:20:49;;;;;;;5.97;1.43;;;5.30;99.90;;;;;;6124583;29;20228;-65
2022/04/30 02:23:57;;;;;;;2.97;1.50;;;5.30;99.90;;;;;;6124236;29;20286;-65
2022/04/30 02:27:04;;;;;;;12.60;2.20;;;5.30;99.90;;;;;;6123798;29;20205;-67
2022/04/30 02:30:14;;;;;;;13.47;2.70;;;5.20;99.90;;;;;;6123036;29;20215;-66
2022/04/30 02:33:21;;;;;;;5.80;1.50;;;5.20;99.90;;;;;;6123739;29;20214;-65
2022/04/30 02:36:27;;;;;;;4.97;1.63;;;5.20;99.90;;;;;;6124772;29;20332;-65
2022/04/30 02:39:33;;;;;;;15.37;2.20;;;5.10;99.90;;;;;;6124133;29;20325;-65
2022/04/30 02:42:40;;;;;;;6.47;1.60;;;5.10;99.90;;;;;;6123990;29;20214;-67
2022/04/30 02:45:46;;;;;;;6.00;1.43;;;5.10;99.90;;;;;;6124003;29;20219;-65
2022/04/30 02:48:52;;;;;;;5.10;1.60;;;5.00;99.90;;;;;;6124262;29;20215;-65
2022/04/30 02:51:57;;;;;;;5.00;1.57;;;5.00;99.90;;;;;;6125974;29;20214;-66
2022/04/30 02:55:04;;;;;;;4.57;1.63;;;5.00;99.90;;;;;;6129028;29;20602;-66
2022/04/30 03:01:35;;;;;;;4.93;1.50;;;5.00;99.90;;;;;;6127482;29;20230;-65
2022/04/30 03:04:53;;;;;;;6.80;1.47;;;5.00;99.90;;;;;;6148567;29;20238;-65
2022/04/30 03:07:59;;;;;;;5.60;1.70;;;5.00;99.90;;;;;;6152891;28;20723;-65
2022/04/30 03:11:04;;;;;;;4.10;1.70;;;5.00;99.90;;;;;;6153615;29;20208;-66
2022/04/30 03:14:13;;;;;;;2.93;1.50;;;5.00;99.90;;;;;;6153247;29;20244;-65
2022/04/30 03:24:04;;;;;;;1.60;1.50;;;5.00;99.90;;;;;;6153074;29;20243;-65
2022/04/30 03:27:11;;;;;;;1.50;1.37;;;4.90;99.90;;;;;;6152963;29;20264;-65
2022/04/30 03:30:17;;;;;;;3.10;1.53;;;4.90;99.90;;;;;;6153161;29;20649;-65
2022/04/30 03:33:22;;;;;;;2.43;1.40;;;4.90;99.90;;;;;;6152638;29;20228;-65
2022/04/30 03:36:28;;;;;;;2.30;1.50;;;5.00;99.90;;;;;;6152632;29;20210;-65
2022/04/30 03:39:33;;;;;;;2.53;1.53;;;4.90;99.90;;;;;;6152677;29;20235;-65
2022/04/30 03:42:39;;;;;;;2.83;1.40;;;4.90;99.90;;;;;;6152180;29;20245;-65
2022/04/30 03:45:45;;;;;;;1.27;1.20;;;4.90;99.90;;;;;;6152361;29;20232;-64
2022/04/30 03:48:53;;;;;;;1.83;1.30;;;4.90;99.90;;;;;;6152748;29;20229;-64
2022/04/30 03:51:58;;;;;;;1.50;1.50;;;5.00;99.90;;;;;;6152251;28;20214;-64
2022/04/30 03:55:04;;;;;;;4.37;1.70;;;5.00;99.90;;;;;;6152660;29;20270;-65
2022/04/30 03:58:11;;;;;;;1.40;1.40;;;4.90;99.90;;;;;;6152083;28;20242;-65
2022/04/30 04:01:19;;;;;;;2.67;1.40;;;5.00;99.90;;;;;;6152897;29;20249;-66
2022/04/30 04:04:25;;;;;;;2.10;1.47;;;5.10;99.90;;;;;;6150272;28;20239;-66
2022/04/30 04:07:32;;;;;;;1.50;1.40;;;5.10;99.90;;;;;;6152244;28;20243;-64
2022/04/30 04:10:38;;;;;;;6.73;1.70;;;5.10;99.90;;;;;;6142573;29;20218;-65
2022/04/30 04:20:31;;;;;;;1.80;1.30;;;5.10;99.90;;;;;;6128510;29;20253;-65
2022/04/30 04:26:57;;;;;;;2.37;1.60;;;5.20;99.90;;;;;;6102534;29;20210;-64
2022/04/30 04:30:02;;;;;;;4.83;1.40;;;5.30;99.90;;;;;;6104516;29;20228;-65
2022/04/30 04:33:10;;;;;;;2.23;1.53;;;5.30;99.90;;;;;;6105778;29;20561;-66
2022/04/30 04:36:16;;;;;;;3.23;1.30;;;5.30;99.90;;;;;;6105405;29;20239;-66
2022/04/30 04:39:21;;;;;;;2.53;1.57;;;5.40;99.90;;;;;;6105731;29;20235;-66
2022/04/30 04:42:26;;;;;;;5.87;1.50;;;5.40;99.90;;;;;;6107350;29;20243;-63
2022/04/30 04:45:31;;;;;;;1.57;1.50;;;5.50;99.90;;;;;;6112690;29;20212;-64
2022/04/30 04:48:39;;;;;;;1.60;1.60;;;5.50;99.90;;;;;;6115796;29;20250;-65
2022/04/30 04:51:45;;;;;;;2.00;1.57;;;5.60;99.90;;;;;;6091254;29;20222;-66
2022/04/30 04:54:50;;;;;;;1.30;1.30;;;5.60;99.90;;;;;;6104086;29;20231;-65
2022/04/30 04:57:55;;;;;;;2.03;1.50;;;5.70;99.90;;;;;;6103392;29;20315;-65
2022/04/30 05:01:01;;;;;;;3.03;1.40;;;5.70;99.90;;;;;;6104131;29;20245;-64
2022/04/30 05:04:08;;;;;;;1.30;1.30;;;5.70;99.90;;;;;;6103395;29;20243;-65
2022/04/30 05:07:14;;;;;;;2.13;1.33;;;5.80;99.90;;;;;;6105969;29;20233;-64
2022/04/30 05:10:19;;;;;;;1.60;1.40;;;5.90;99.90;;;;;;6127659;29;20200;-65
2022/04/30 05:13:24;;;;;;;4.00;1.40;;;5.90;99.90;;;;;;6126813;29;20238;-65
2022/04/30 05:16:30;;;;;;;1.60;1.57;;;6.00;99.90;;;;;;6126749;29;20216;-65
2022/04/30 05:19:37;;;;;;;5.10;1.60;;;6.00;99.90;;;;;;6126811;29;20234;-65
2022/04/30 05:22:42;;;;;;;3.43;1.50;;;6.20;99.90;;;;;;6126630;29;20253;-67
2022/04/30 05:25:47;;;;;;;1.50;1.30;;;6.20;99.90;;;;;;6127167;29;20211;-66
2022/04/30 05:28:53;;;;;;;2.00;1.57;;;6.30;99.90;;;;;;6126559;29;20239;-65
2022/04/30 05:31:58;;;;;;;2.37;1.23;;;6.40;99.90;;;;;;6125175;29;20218;-66
2022/04/30 05:35:06;;;;;;;1.93;1.40;;;6.50;99.90;;;;;;6126887;29;20212;-65
2022/04/30 05:38:14;;;;;;;2.50;1.20;;;6.60;99.90;;;;;;6126410;29;20239;-66
2022/04/30 05:41:20;;;;;;;3.77;1.23;;;6.70;99.90;;;;;;6126775;29;20214;-65
2022/04/30 05:44:29;;;;;;;1.27;1.13;;;6.60;99.90;;;;;;6126427;29;20239;-66
2022/04/30 05:47:34;;;;;;;1.90;1.30;;;6.80;99.90;;;;;;6126328;29;20230;-65
2022/04/30 05:50:46;;;;;;;1.70;1.20;;;6.90;99.90;;;;;;6126663;29;20211;-65
2022/04/30 05:53:51;;;;;;;1.37;1.07;;;7.00;99.90;;;;;;6126273;29;20239;-66
2022/04/30 05:56:59;;;;;;;4.40;1.60;;;7.00;99.90;;;;;;6126378;29;20222;-67
2022/04/30 06:00:05;;;;;;;3.50;1.60;;;7.10;99.90;;;;;;6126343;29;20215;-67
2022/04/30 06:03:15;;;;;;;2.00;1.20;;;7.20;99.50;;;;;;6125452;29;20597;-65
2022/04/30 06:06:23;;;;;;;1.30;1.30;;;7.30;99.10;;;;;;6126597;29;20246;-65
2022/04/30 06:09:28;;;;;;;1.20;1.10;;;7.40;98.40;;;;;;6145695;29;20238;-66
2022/04/30 06:12:34;;;;;;;1.87;1.20;;;7.50;97.80;;;;;;6144283;28;20236;-66
2022/04/30 06:15:39;;;;;;;2.72;1.20;;;7.70;97.20;;;;;;6109491;29;20219;-66
2022/04/30 06:18:44;;;;;;;1.27;1.20;;;7.80;96.60;;;;;;6139996;29;20265;-66
2022/04/30 06:22:14;;;;;;;2.80;1.30;;;8.00;96.90;;;;;;6149487;28;20233;-66
2022/04/30 06:25:19;;;;;;;2.90;1.20;;;8.20;96.30;;;;;;6149807;28;20218;-66
2022/04/30 06:28:25;;;;;;;1.15;1.10;;;8.30;95.10;;;;;;6149736;28;20243;-66
2022/04/30 06:31:30;;;;;;;1.42;0.90;;;8.50;94.10;;;;;;6148235;29;20220;-66
2022/04/30 06:34:36;;;;;;;1.00;1.00;;;8.60;93.20;;;;;;6171436;28;20715;-67
2022/04/30 06:37:43;;;;;;;1.10;1.10;;;8.80;93.50;;;;;;6173260;28;20242;-67
2022/04/30 06:40:49;;;;;;;1.08;1.08;;;9.00;91.30;;;;;;6173730;28;20217;-66
2022/04/30 06:43:57;;;;;;;1.83;1.02;;;9.20;91.00;;;;;;6173249;28;20606;-65
2022/04/30 06:47:02;;;;;;;5.47;1.10;;;9.30;90.10;;;;;;6173298;28;20215;-66
2022/04/30 06:50:10;;;;;;;1.00;1.00;;;9.40;87.80;;;;;;6173587;28;20202;-67
2022/04/30 07:03:31;;;;;;;0.90;0.90;;;10.50;84.00;;;;;;6172338;28;20344;-67
2022/04/30 07:06:37;;;;;;;8.50;1.40;;;10.70;75.80;;;;;;6173277;28;20230;-66
2022/04/30 07:09:44;;;;;;;3.25;1.00;;;10.60;74.00;;;;;;6172265;28;20233;-67
2022/04/30 07:12:50;;;;;;;2.15;1.20;;;10.50;74.40;;;;;;6172808;28;20242;-67
2022/04/30 07:15:55;;;;;;;2.42;1.02;;;10.60;75.40;;;;;;6173266;28;20513;-66
2022/04/30 07:19:00;;;;;;;0.98;0.98;;;10.60;72.30;;;;;;6172706;28;20237;-66
2022/04/30 07:22:08;;;;;;;2.22;1.20;;;10.50;73.40;;;;;;6164773;28;20672;-65
2022/04/30 07:25:15;;;;;;;1.20;1.20;;;10.60;75.20;;;;;;6172855;28;20234;-67
2022/04/30 07:28:22;;;;;;;1.15;1.00;;;10.70;73.30;;;;;;6172341;28;20246;-65
2022/04/30 07:31:28;;;;;;;2.38;1.40;;;10.70;72.10;;;;;;6172853;28;20217;-66
2022/04/30 07:34:33;;;;;;;1.02;1.02;;;10.80;73.60;;;;;;6173850;28;20242;-67
2022/04/30 07:37:39;;;;;;;4.03;1.23;;;10.80;72.90;;;;;;6172874;28;20685;-66
2022/04/30 07:40:48;;;;;;;1.13;1.10;;;10.80;72.40;;;;;;6177372;28;20207;-67
2022/04/30 07:43:53;;;;;;;1.58;1.13;;;10.90;72.50;;;;;;6176858;28;20238;-67
2022/04/30 07:46:59;;;;;;;2.47;1.70;;;10.90;73.10;;;;;;6176327;28;20206;-66
2022/04/30 07:50:09;;;;;;;2.00;1.63;;;11.00;67.80;;;;;;6177042;28;20206;-67
2022/04/30 07:53:17;;;;;;;1.45;1.35;;;11.00;65.30;;;;;;6176348;28;20234;-67
2022/04/30 07:56:24;;;;;;;2.97;1.77;;;11.00;64.70;;;;;;6177102;28;20217;-66
2022/04/30 07:59:29;;;;;;;1.75;1.13;;;11.10;62.70;;;;;;6176436;28;20230;-66
2022/04/30 08:02:35;;;;;;;1.27;1.27;;;11.10;62.70;;;;;;6176249;28;20233;-66
2022/04/30 08:05:40;;;;;;;1.60;1.50;;;11.10;62.50;;;;;;6156404;28;20230;-66
2022/04/30 08:08:46;;;;;;;1.30;1.30;;;11.10;62.80;;;;;;6176578;28;20291;-67
2022/04/30 08:11:53;;;;;;;1.40;1.30;;;11.10;61.40;;;;;;6176426;28;20199;-67
2022/04/30 08:14:58;;;;;;;4.32;1.65;;;11.10;60.00;;;;;;6176229;28;20230;-67
2022/04/30 08:18:04;;;;;;;1.17;1.17;;;11.20;59.70;;;;;;6176115;28;20230;-67
2022/04/30 08:21:10;;;;;;;2.47;1.10;;;11.20;59.20;;;;;;6159351;28;20668;-67
2022/04/30 08:24:15;;;;;;;0.90;0.90;;;11.10;59.00;;;;;;6175763;28;20254;-67
2022/04/30 08:27:22;;;;;;;1.00;1.00;;;11.20;59.20;;;;;;6174755;28;20234;-67
2022/04/30 08:30:27;;;;;;;3.80;1.23;;;11.20;59.70;;;;;;6176539;28;20237;-68
2022/04/30 08:33:33;;;;;;;2.83;1.30;;;11.30;60.30;;;;;;6175936;28;20234;-68
2022/04/30 08:36:38;;;;;;;1.17;1.17;;;11.30;59.50;;;;;;6176107;28;20221;-67
2022/04/30 08:39:44;;;;;;;4.68;0.90;;;11.30;59.50;;;;;;6175652;28;20235;-69
2022/04/30 08:42:51;;;;;;;1.25;0.98;;;11.30;60.00;;;;;;6175716;28;20329;-66
2022/04/30 08:45:56;;;;;;;4.57;1.23;;;11.20;59.70;;;;;;6176035;28;20692;-67
2022/04/30 08:49:02;;;;;;;1.13;0.95;;;11.20;60.00;;;;;;6174761;28;20246;-66
2022/04/30 08:52:08;;;;;;;4.03;1.20;;;11.20;62.20;;;;;;6175347;28;20211;-67
2022/04/30 08:55:13;;;;;;;1.20;1.00;;;11.20;62.40;;;;;;6174927;28;20226;-67
2022/04/30 08:58:22;;;;;;;1.15;1.08;;;11.30;61.50;;;;;;6175196;28;20245;-66
2022/04/30 09:01:27;;;;;;;9.82;1.48;;;11.40;61.20;;;;;;6175404;28;20249;-66
2022/04/30 09:04:44;;;;;;;1.10;1.10;;;11.40;62.20;;;;;;6175081;28;20686;-66
2022/04/30 09:07:54;;;;;;;2.20;0.93;;;11.40;59.80;;;;;;6175110;28;20314;-66
2022/04/30 09:11:07;;;;;;;0.80;0.80;;;11.40;56.10;;;;;;6175402;28;20210;-66
2022/04/30 09:14:14;;;;;;;1.15;0.90;;;11.40;55.30;;;;;;6174988;28;20234;-66
2022/04/30 09:17:22;;;;;;;2.35;1.05;;;11.50;55.50;;;;;;6151773;28;20349;-66
2022/04/30 09:20:28;;;;;;;1.00;1.00;;;11.50;54.70;;;;;;6175413;28;20217;-67
2022/04/30 09:23:33;;;;;;;0.98;0.80;;;11.50;55.10;;;;;;6174244;28;20243;-67
2022/04/30 09:26:43;;;;;;;5.03;0.98;;;11.50;55.20;;;;;;6175253;28;20227;-67
2022/04/30 09:29:50;;;;;;;1.38;1.27;;;11.50;55.20;;;;;;6175350;28;20234;-67
2022/04/30 09:32:59;;;;;;;1.00;1.00;;;11.60;55.90;;;;;;6174698;28;20238;-67
2022/04/30 09:39:34;;;;;;;3.70;0.70;;;11.70;53.80;;;;;;6174798;28;20245;-67
2022/04/30 09:42:40;;;;;;;1.00;1.00;;;11.70;53.40;;;;;;6174464;28;20245;-67
2022/04/30 09:45:46;;;;;;;0.85;0.85;;;11.80;52.50;;;;;;6174830;28;20223;-66
2022/04/30 09:55:40;;;;;;;4.28;1.13;;;11.90;52.20;;;;;;6183834;28;20301;-65
2022/04/30 09:58:45;;;;;;;0.90;0.90;;;12.00;51.00;;;;;;6182135;28;20234;-65
2022/04/30 10:01:53;;;;;;;1.20;1.20;;;12.00;51.70;;;;;;6181694;28;20264;-65
2022/04/30 10:04:59;;;;;;;3.70;1.13;;;12.00;51.90;;;;;;6175893;28;20233;-67
2022/04/30 10:08:06;;;;;;;1.10;1.10;;;12.10;51.20;;;;;;6168622;28;20242;-66
2022/04/30 10:11:22;;;;;;;3.88;0.90;;;12.20;51.50;;;;;;6158843;28;20208;-66
2022/04/30 10:14:55;;;;;;;2.63;1.00;;;12.30;49.90;;;;;;6149628;28;20239;-67
2022/04/30 10:18:02;;;;;;;0.88;0.85;;;12.40;48.80;;;;;;6149661;29;20238;-67
2022/04/30 10:21:18;;;;;;;4.50;0.90;;;12.40;48.30;;;;;;6150006;29;20211;-67
2022/04/30 10:24:23;;;;;;;0.95;0.95;;;12.50;47.40;;;;;;6150123;29;20231;-67
2022/04/30 10:27:40;;;;;;;2.45;0.90;;;12.50;47.10;;;;;;6147912;28;20251;-66
2022/04/30 10:30:49;;;;;;;2.92;0.80;;;12.60;47.10;;;;;;6150357;29;20222;-67
2022/04/30 10:33:56;;;;;;;2.75;0.80;;;12.70;45.80;;;;;;6149683;29;20231;-66
2022/04/30 10:37:03;;;;;;;5.78;1.08;;;12.70;45.60;;;;;;6149976;28;20222;-67
2022/04/30 10:40:10;;;;;;;20.95;1.80;;;12.90;46.80;;;;;;6149905;29;20203;-66
2022/04/30 10:43:20;;;;;;;3.50;0.82;;;12.90;45.80;;;;;;6149158;28;20242;-68
2022/04/30 10:46:26;;;;;;;1.60;1.00;;;12.90;46.40;;;;;;6149459;29;20231;-67
2022/04/30 10:49:32;;;;;;;3.88;1.10;;;12.90;45.70;;;;;;6149565;29;20241;-67
2022/04/30 10:52:41;;;;;;;6.28;1.27;;;13.00;45.40;;;;;;6152904;29;20543;-67
2022/04/30 10:55:47;;;;;;;2.63;1.30;;;13.00;45.00;;;;;;6158836;29;20226;-67
2022/04/30 10:58:52;;;;;;;0.88;0.88;;;13.00;45.80;;;;;;6155930;29;20231;-68
2022/04/30 11:01:59;;;;;;;1.02;1.02;;;13.00;46.20;;;;;;6155131;29;20207;-66
2022/04/30 11:05:19;;;;;;;2.95;1.00;;;13.10;46.10;;;;;;6152006;29;20211;-68
2022/04/30 11:08:24;;;;;;;6.00;0.98;;;13.20;46.00;;;;;;6170699;28;20246;-66
2022/04/30 11:11:30;;;;;;;3.03;1.00;;;13.20;45.20;;;;;;6173594;28;20201;-66
2022/04/30 11:14:36;;;;;;;7.55;0.90;;;13.20;45.10;;;;;;6177383;28;20230;-67
2022/04/30 11:17:45;;;;;;;2.75;0.90;;;13.30;44.40;;;;;;6178020;28;20276;-67
2022/04/30 11:21:00;;;;;;;4.35;4.25;;;13.40;43.60;;;;;;6178921;28;20562;-67
2022/04/30 11:24:08;;;;;;;3.38;2.58;;;13.50;44.20;;;;;;6169648;28;20245;-69
2022/04/30 11:27:13;;;;;;;2.67;2.50;;;13.50;43.50;;;;;;6179018;28;20237;-67
2022/04/30 11:30:22;;;;;;;2.63;1.40;;;13.60;43.60;;;;;;6179731;28;20207;-68
2022/04/30 11:33:36;;;;;;;1.65;1.00;;;13.60;43.60;;;;;;6178958;28;20639;-69
2022/04/30 11:36:45;;;;;;;1.17;0.93;;;13.50;44.30;;;;;;6179077;28;20553;-65
2022/04/30 11:39:50;;;;;;;0.85;0.85;;;13.40;44.90;;;;;;6179228;28;20235;-67
2022/04/30 11:42:56;;;;;;;4.43;1.10;;;13.40;45.00;;;;;;6180840;28;20234;-67
2022/04/30 11:46:03;;;;;;;1.30;1.05;;;13.30;45.10;;;;;;6179031;28;20214;-65
2022/04/30 11:49:09;;;;;;;1.13;1.05;;;13.30;45.50;;;;;;6178409;28;20712;-67
2022/04/30 11:52:37;;;;;;;1.50;1.00;;;13.30;45.90;;;;;;6178658;28;20233;-66
2022/04/30 11:55:42;;;;;;;2.90;1.23;;;13.30;46.60;;;;;;6181286;28;20207;-66
2022/04/30 11:58:48;;;;;;;2.58;1.10;;;13.40;46.20;;;;;;6181998;28;20242;-66
2022/04/30 12:01:53;;;;;;;3.40;1.40;;;13.40;45.80;;;;;;6179370;28;20218;-67
2022/04/30 12:05:03;;;;;;;0.88;0.88;;;13.30;45.90;;;;;;6178737;28;20207;-66
2022/04/30 12:08:18;;;;;;;0.95;0.95;;;13.40;46.50;;;;;;6177897;28;20235;-66
2022/04/30 12:11:23;;;;;;;1.25;1.25;;;13.30;47.00;;;;;;6179398;28;20213;-66
2022/04/30 12:14:29;;;;;;;2.17;0.93;;;13.50;46.80;;;;;;6177337;28;20268;-66
2022/04/30 12:17:35;;;;;;;2.80;1.25;;;13.40;47.20;;;;;;6176498;28;20342;-66
2022/04/30 12:24:43;;;;;;;3.80;1.08;;;13.40;46.70;;;;;;6125229;29;20236;-66
2022/04/30 12:27:54;;;;;;;2.55;1.10;;;13.30;47.30;;;;;;6174505;28;20239;-66
2022/04/30 12:31:18;;;;;;;26.30;2.38;;;13.20;49.00;;;;;;6176686;28;20564;-64
2022/04/30 12:34:27;;;;;;;3.00;1.30;;;13.20;49.20;;;;;;6177344;28;20248;-67
2022/04/30 12:37:34;;;;;;;3.17;1.10;;;13.10;49.50;;;;;;6177993;28;20239;-66
2022/04/30 12:40:48;;;;;;;3.33;1.23;;;13.10;50.30;;;;;;6179480;28;20203;-65
2022/04/30 12:43:55;;;;;;;5.25;1.48;;;12.90;51.40;;;;;;6179074;28;20239;-66
2022/04/30 12:47:00;;;;;;;3.60;1.50;;;13.00;52.90;;;;;;6178764;28;20211;-66
2022/04/30 12:50:07;;;;;;;1.40;1.30;;;13.10;52.70;;;;;;6178712;28;20211;-67
2022/04/30 12:53:14;;;;;;;6.20;1.27;;;13.00;52.30;;;;;;6176582;28;20231;-67
2022/04/30 12:56:23;;;;;;;2.13;1.33;;;13.00;52.20;;;;;;6176852;28;20226;-68
2022/04/30 12:59:28;;;;;;;3.13;1.48;;;13.10;53.10;;;;;;6177317;28;20250;-67
2022/04/30 13:02:33;;;;;;;1.30;1.30;;;13.10;52.40;;;;;;6179086;28;20237;-67
2022/04/30 13:05:39;;;;;;;4.22;1.40;;;13.10;52.30;;;;;;6179512;28;20213;-66
2022/04/30 13:15:38;;;;;;;3.20;1.58;;;13.00;50.90;;;;;;6178242;28;20207;-66
2022/04/30 13:18:45;;;;;;;2.72;1.40;;;13.00;50.80;;;;;;6178213;28;20238;-66
2022/04/30 13:21:50;;;;;;;1.33;1.00;;;13.00;50.10;;;;;;6179073;28;20637;-67
2022/04/30 13:24:55;;;;;;;2.42;1.00;;;13.00;50.60;;;;;;6178916;28;20568;-67
2022/04/30 13:28:03;;;;;;;1.17;1.17;;;13.00;51.00;;;;;;6177550;28;20243;-66
2022/04/30 13:31:08;;;;;;;1.30;1.23;;;13.10;51.80;;;;;;6177660;28;20210;-66
2022/04/30 13:34:14;;;;;;;1.15;1.02;;;13.00;51.60;;;;;;6175689;28;20733;-67
2022/04/30 13:37:20;;;;;;;3.72;1.25;;;13.10;51.60;;;;;;6173853;28;20237;-68
2022/04/30 13:40:26;;;;;;;2.50;1.52;;;13.10;52.40;;;;;;6174858;28;20222;-67
2022/04/30 13:43:33;;;;;;;3.50;1.25;;;13.10;52.50;;;;;;6174483;28;20251;-67
2022/04/30 13:46:38;;;;;;;2.72;1.50;;;13.00;53.20;;;;;;6173146;28;20217;-67
2022/04/30 13:49:52;;;;;;;1.40;1.40;;;13.00;52.90;;;;;;6172441;28;20712;-67
2022/04/30 13:52:58;;;;;;;6.75;1.50;;;13.00;52.80;;;;;;6173497;28;20602;-67
2022/04/30 13:56:04;;;;;;;4.68;1.70;;;13.00;53.20;;;;;;6174320;28;20211;-67
2022/04/30 13:59:12;;;;;;;2.60;1.10;;;12.90;54.50;;;;;;6167140;28;20242;-67
2022/04/30 14:02:18;;;;;;;2.88;1.25;;;13.00;53.40;;;;;;6174504;28;20234;-67
2022/04/30 14:05:24;;;;;;;2.10;1.27;;;13.00;52.10;;;;;;6175171;28;20646;-67
2022/04/30 14:08:29;;;;;;;1.60;1.40;;;12.90;51.00;;;;;;6173247;28;20732;-66
2022/04/30 14:11:34;;;;;;;2.13;1.20;;;13.00;50.10;;;;;;6174415;28;20629;-66
2022/04/30 14:14:59;;;;;;;3.05;1.50;;;13.00;50.00;;;;;;6173560;28;20245;-66
2022/04/30 14:18:19;;;;;;;11.95;1.67;;;13.00;50.60;;;;;;6173077;28;20240;-68
2022/04/30 14:21:25;;;;;;;2.90;1.40;;;13.00;51.20;;;;;;6174038;28;20214;-67
2022/04/30 14:24:31;;;;;;;2.90;1.52;;;13.10;50.90;;;;;;6173725;28;20661;-66
2022/04/30 14:27:55;;;;;;;1.33;1.25;;;13.10;50.40;;;;;;6173612;28;20237;-66
2022/04/30 14:31:03;;;;;;;1.35;1.10;;;13.10;50.80;;;;;;6173708;28;20303;-67
2022/04/30 14:34:09;;;;;;;1.55;1.52;;;13.10;51.40;;;;;;6173615;28;20226;-67
2022/04/30 14:37:14;;;;;;;2.63;1.48;;;13.20;52.20;;;;;;6172853;28;20210;-67
2022/04/30 14:40:20;;;;;;;3.50;1.40;;;13.10;53.30;;;;;;6173886;28;20540;-67
2022/04/30 14:43:25;;;;;;;2.15;1.90;;;13.00;54.70;;;;;;6173052;28;20242;-66
2022/04/30 14:46:32;;;;;;;1.85;1.50;;;13.00;55.30;;;;;;6173870;28;20222;-67
2022/04/30 14:49:39;;;;;;;7.18;2.63;;;13.10;56.40;;;;;;6177942;28;20237;-67
2022/04/30 14:52:45;;;;;;;2.83;2.35;;;13.10;56.90;;;;;;6177642;28;20250;-66
2022/04/30 14:55:51;;;;;;;2.50;2.40;;;13.20;57.10;;;;;;6178400;28;20217;-66
2022/04/30 14:58:57;;;;;;;2.40;2.05;;;13.20;57.70;;;;;;6177870;28;20248;-67
2022/04/30 15:02:04;;;;;;;5.07;1.90;;;12.90;58.50;;;;;;6169620;28;20238;-68
2022/04/30 15:05:10;;;;;;;2.85;1.75;;;13.00;59.10;;;;;;6178022;28;20203;-66
2022/04/30 15:08:16;;;;;;;5.50;1.85;;;13.00;60.00;;;;;;6178086;28;20246;-67
2022/04/30 15:11:21;;;;;;;4.28;1.45;;;12.60;61.30;;;;;;6178834;28;20237;-65
2022/04/30 15:14:26;;;;;;;4.53;1.50;;;12.60;61.70;;;;;;6178284;28;20246;-68
2022/04/30 15:17:33;;;;;;;9.38;2.03;;;12.80;61.00;;;;;;6178554;28;20238;-67
2022/04/30 15:20:38;;;;;;;1.77;1.60;;;12.80;61.00;;;;;;6177972;28;20214;-65
2022/04/30 15:23:43;;;;;;;2.35;1.50;;;12.80;60.60;;;;;;6177690;28;20242;-66
2022/04/30 15:26:49;;;;;;;2.88;2.47;;;12.90;59.10;;;;;;6179025;28;20247;-65
2022/04/30 15:29:54;;;;;;;3.42;2.67;;;13.00;59.10;;;;;;6182833;28;20238;-66
2022/04/30 15:33:02;;;;;;;2.25;2.00;;;12.90;60.10;;;;;;6183261;28;20316;-65
2022/04/30 15:36:09;;;;;;;7.28;1.77;;;13.00;59.80;;;;;;6174311;28;20217;-66
2022/04/30 15:39:14;;;;;;;3.80;2.00;;;12.90;60.50;;;;;;6176939;28;20242;-69
2022/04/30 15:42:19;;;;;;;4.28;1.95;;;12.90;60.90;;;;;;6176844;28;20662;-68
2022/04/30 15:45:25;;;;;;;2.95;1.60;;;12.80;61.80;;;;;;6178233;28;20218;-68
2022/04/30 15:51:55;;;;;;;4.20;1.40;;;12.60;63.20;;;;;;6177136;28;20231;-67
2022/04/30 15:55:01;;;;;;;1.70;1.58;;;12.50;64.00;;;;;;6176686;28;20210;-65
2022/04/30 15:58:07;;;;;;;4.70;1.70;;;12.50;63.80;;;;;;6176040;28;20246;-68
2022/04/30 16:01:12;;;;;;;2.22;1.48;;;12.50;64.60;;;;;;6176801;28;20211;-67
2022/04/30 16:04:19;;;;;;;7.15;2.13;;;12.50;65.30;;;;;;6176413;28;20238;-66
2022/04/30 16:07:25;;;;;;;3.17;1.70;;;12.40;66.00;;;;;;6176039;28;20235;-67
2022/04/30 16:10:30;;;;;;;5.65;1.80;;;12.20;67.10;;;;;;6176513;28;20234;-67
2022/04/30 16:13:36;;;;;;;5.38;1.90;;;12.10;67.90;;;;;;6176262;28;20230;-67
2022/04/30 16:16:41;;;;;;;3.20;2.13;;;12.10;68.10;;;;;;6176548;28;20203;-66
2022/04/30 16:19:48;;;;;;;4.60;1.92;;;12.20;68.40;;;;;;6175742;28;20573;-66
2022/04/30 16:22:53;;;;;;;1.83;1.70;;;12.30;68.50;;;;;;6175771;28;20256;-68
2022/04/30 16:26:01;;;;;;;2.13;1.75;;;12.30;68.50;;;;;;6176545;28;20213;-67
2022/04/30 16:29:09;;;;;;;6.63;1.88;;;12.20;69.70;;;;;;6176166;28;20234;-68
2022/04/30 16:32:16;;;;;;;5.28;1.70;;;12.10;70.30;;;;;;6167326;28;20227;-66
2022/04/30 16:35:23;;;;;;;3.95;1.88;;;12.10;71.10;;;;;;6175787;28;20207;-67
2022/04/30 16:38:31;;;;;;;2.38;2.10;;;12.00;71.80;;;;;;6176352;28;20249;-66
2022/04/30 16:41:37;;;;;;;2.05;1.83;;;12.00;72.60;;;;;;6175932;28;20214;-66
2022/04/30 16:44:43;;;;;;;3.65;1.90;;;12.10;71.90;;;;;;6175668;28;20226;-67
2022/04/30 16:47:51;;;;;;;1.52;1.52;;;12.10;72.50;;;;;;6175419;28;20243;-66
2022/04/30 16:57:43;;;;;;;5.10;3.28;;;12.10;73.60;;;;;;6169909;28;20237;-66
2022/04/30 17:00:48;;;;;;;4.03;3.83;;;12.00;75.10;;;;;;6176163;28;20217;-66
2022/04/30 17:03:54;;;;;;;3.60;3.40;;;12.00;75.30;;;;;;6175760;28;20257;-67
2022/04/30 17:07:01;;;;;;;5.72;4.65;;;11.90;76.90;;;;;;6175608;28;20234;-66
2022/04/30 17:10:09;;;;;;;2.92;2.70;;;11.90;77.70;;;;;;6175147;28;20370;-66
2022/04/30 17:13:15;;;;;;;4.65;1.80;;;11.90;77.70;;;;;;6175470;28;20686;-67
2022/04/30 17:16:21;;;;;;;7.97;2.00;;;12.00;77.80;;;;;;6176247;28;20203;-67
2022/04/30 17:19:26;;;;;;;5.53;1.80;;;11.90;78.80;;;;;;6174833;28;20249;-67
2022/04/30 17:22:33;;;;;;;5.47;1.67;;;11.70;79.50;;;;;;6175436;28;20238;-67
2022/04/30 17:25:39;;;;;;;2.08;1.98;;;11.70;80.10;;;;;;6175493;28;20207;-67
2022/04/30 17:28:45;;;;;;;2.47;2.33;;;11.60;80.40;;;;;;6176327;28;20240;-66